sensor_id;sensor_type;location;lat;lon;timestamp;pressure;altitude;pressure_sealevel;temperature;humidity
36502;BME280;25393;46.108;3.390;2023-02-22T00:01:41;97817.66;;;7.79;84.65
36502;BME280;25393;46.108;3.390;2023-02-22T00:04:16;97809.94;;;7.86;83.74
36502;BME280;25393;46.108;3.390;2023-02-22T00:06:47;97806.34;;;7.87;83.86
36502;BME280;25393;46.108;3.390;2023-02-22T00:09:14;97821.66;;;7.83;83.86
36502;BME280;25393;46.108;3.390;2023-02-22T00:11:47;97827.41;;;7.79;84.72
36502;BME280;25393;46.108;3.390;2023-02-22T00:14:14;97806.53;;;7.93;83.89
36502;BME280;25393;46.108;3.390;2023-02-22T00:16:41;97799.56;;;7.84;83.75
36502;BME280;25393;46.108;3.390;2023-02-22T00:19:07;97807.50;;;7.84;83.86
36502;BME280;25393;46.108;3.390;2023-02-22T00:21:35;97809.44;;;7.82;84.47
36502;BME280;25393;46.108;3.390;2023-02-22T00:24:03;97800.75;;;7.90;83.62
36502;BME280;25393;46.108;3.390;2023-02-22T00:26:53;97797.44;;;7.88;83.49
36502;BME280;25393;46.108;3.390;2023-02-22T00:29:21;97805.13;;;7.81;83.84
36502;BME280;25393;46.108;3.390;2023-02-22T00:31:48;97804.16;;;7.82;84.80
36502;BME280;25393;46.108;3.390;2023-02-22T00:34:15;97801.31;;;7.76;85.45
36502;BME280;25393;46.108;3.390;2023-02-22T00:36:46;97801.97;;;7.78;85.18
36502;BME280;25393;46.108;3.390;2023-02-22T00:39:13;97810.84;;;7.94;84.68
36502;BME280;25393;46.108;3.390;2023-02-22T00:41:40;97819.00;;;8.09;84.46
36502;BME280;25393;46.108;3.390;2023-02-22T00:44:06;97815.53;;;8.09;83.96
36502;BME280;25393;46.108;3.390;2023-02-22T00:46:36;97807.41;;;8.02;83.14
36502;BME280;25393;46.108;3.390;2023-02-22T00:49:05;97802.72;;;7.88;82.49
36502;BME280;25393;46.108;3.390;2023-02-22T00:51:34;97818.63;;;7.70;82.63
36502;BME280;25393;46.108;3.390;2023-02-22T00:54:00;97820.38;;;7.62;82.49
36502;BME280;25393;46.108;3.390;2023-02-22T00:56:27;97814.44;;;7.60;81.68
36502;BME280;25393;46.108;3.390;2023-02-22T00:58:54;97814.75;;;7.39;83.18
36502;BME280;25393;46.108;3.390;2023-02-22T01:01:20;97808.38;;;7.41;86.06
36502;BME280;25393;46.108;3.390;2023-02-22T01:03:47;97822.78;;;7.29;88.33
36502;BME280;25393;46.108;3.390;2023-02-22T01:06:14;97832.16;;;7.06;91.93
36502;BME280;25393;46.108;3.390;2023-02-22T01:08:43;97835.63;;;7.07;92.00
36502;BME280;25393;46.108;3.390;2023-02-22T01:11:11;97825.31;;;6.95;92.41
36502;BME280;25393;46.108;3.390;2023-02-22T01:13:38;97835.69;;;6.97;92.55
36502;BME280;25393;46.108;3.390;2023-02-22T01:16:07;97834.72;;;6.98;93.67
36502;BME280;25393;46.108;3.390;2023-02-22T01:18:36;97838.03;;;7.00;93.89
36502;BME280;25393;46.108;3.390;2023-02-22T01:21:03;97839.00;;;6.99;94.06
36502;BME280;25393;46.108;3.390;2023-02-22T01:23:31;97836.81;;;6.94;94.60
36502;BME280;25393;46.108;3.390;2023-02-22T01:25:57;97839.00;;;6.99;94.68
36502;BME280;25393;46.108;3.390;2023-02-22T01:28:24;97839.47;;;6.94;94.81
36502;BME280;25393;46.108;3.390;2023-02-22T01:30:50;97837.25;;;7.08;94.44
36502;BME280;25393;46.108;3.390;2023-02-22T01:33:17;97839.13;;;7.15;93.59
36502;BME280;25393;46.108;3.390;2023-02-22T01:35:44;97850.28;;;7.27;92.39
36502;BME280;25393;46.108;3.390;2023-02-22T01:38:11;97849.28;;;7.45;90.18
36502;BME280;25393;46.108;3.390;2023-02-22T01:40:42;97851.53;;;7.40;90.31
36502;BME280;25393;46.108;3.390;2023-02-22T01:43:28;97842.16;;;7.20;91.71
36502;BME280;25393;46.108;3.390;2023-02-22T01:48:48;97849.16;;;7.29;91.22
36502;BME280;25393;46.108;3.390;2023-02-22T01:56:22;97842.50;;;7.69;89.40
36502;BME280;25393;46.108;3.390;2023-02-22T01:58:57;97845.91;;;7.87;88.59
36502;BME280;25393;46.108;3.390;2023-02-22T02:01:27;97835.16;;;7.80;88.15
36502;BME280;25393;46.108;3.390;2023-02-22T02:03:56;97838.53;;;7.90;88.40
36502;BME280;25393;46.108;3.390;2023-02-22T02:06:31;97835.19;;;7.88;87.66
36502;BME280;25393;46.108;3.390;2023-02-22T02:11:58;97813.88;;;7.82;87.27
36502;BME280;25393;46.108;3.390;2023-02-22T02:14:31;97818.03;;;7.84;87.71
36502;BME280;25393;46.108;3.390;2023-02-22T02:16:58;97821.34;;;7.86;87.65
36502;BME280;25393;46.108;3.390;2023-02-22T02:19:56;97814.91;;;7.81;87.40
36502;BME280;25393;46.108;3.390;2023-02-22T02:31:36;97817.78;;;7.70;89.19
36502;BME280;25393;46.108;3.390;2023-02-22T02:34:19;97814.38;;;7.51;89.75
36502;BME280;25393;46.108;3.390;2023-02-22T02:40:20;97822.22;;;7.43;92.36
36502;BME280;25393;46.108;3.390;2023-02-22T02:42:54;97813.91;;;7.56;91.59
36502;BME280;25393;46.108;3.390;2023-02-22T02:45:31;97795.47;;;7.56;90.22
36502;BME280;25393;46.108;3.390;2023-02-22T02:48:00;97799.00;;;7.73;89.64
36502;BME280;25393;46.108;3.390;2023-02-22T02:50:35;97804.16;;;7.82;89.97
36502;BME280;25393;46.108;3.390;2023-02-22T02:53:05;97799.91;;;7.89;89.91
36502;BME280;25393;46.108;3.390;2023-02-22T02:55:36;97797.81;;;8.01;88.99
36502;BME280;25393;46.108;3.390;2023-02-22T02:58:06;97799.88;;;8.15;88.27
36502;BME280;25393;46.108;3.390;2023-02-22T03:00:36;97802.50;;;8.15;87.93
36502;BME280;25393;46.108;3.390;2023-02-22T03:11:20;97783.88;;;8.25;87.54
36502;BME280;25393;46.108;3.390;2023-02-22T03:14:04;97790.34;;;8.30;87.33
36502;BME280;25393;46.108;3.390;2023-02-22T03:16:51;97794.84;;;8.38;86.66
36502;BME280;25393;46.108;3.390;2023-02-22T03:19:46;97793.28;;;8.19;87.00
36502;BME280;25393;46.108;3.390;2023-02-22T03:22:23;97801.03;;;8.13;88.09
36502;BME280;25393;46.108;3.390;2023-02-22T03:25:10;97788.81;;;8.12;87.74
36502;BME280;25393;46.108;3.390;2023-02-22T03:27:42;97795.25;;;8.17;87.58
36502;BME280;25393;46.108;3.390;2023-02-22T03:30:36;97792.59;;;8.17;88.21
36502;BME280;25393;46.108;3.390;2023-02-22T03:33:09;97777.09;;;8.14;88.17
36502;BME280;25393;46.108;3.390;2023-02-22T03:35:48;97794.78;;;8.22;89.21
36502;BME280;25393;46.108;3.390;2023-02-22T03:38:19;97784.34;;;8.20;89.11
36502;BME280;25393;46.108;3.390;2023-02-22T03:40:49;97783.88;;;8.25;89.33
36502;BME280;25393;46.108;3.390;2023-02-22T03:43:22;97774.47;;;8.22;89.44
36502;BME280;25393;46.108;3.390;2023-02-22T03:45:50;97784.22;;;8.22;90.03
36502;BME280;25393;46.108;3.390;2023-02-22T03:51:04;97777.13;;;8.22;89.74
36502;BME280;25393;46.108;3.390;2023-02-22T03:53:32;97780.28;;;8.26;89.86
36502;BME280;25393;46.108;3.390;2023-02-22T03:56:03;97785.28;;;8.37;89.18
36502;BME280;25393;46.108;3.390;2023-02-22T03:58:35;97775.00;;;8.26;89.19
36502;BME280;25393;46.108;3.390;2023-02-22T04:01:03;97786.59;;;8.33;89.61
36502;BME280;25393;46.108;3.390;2023-02-22T04:03:29;97779.16;;;8.28;90.05
36502;BME280;25393;46.108;3.390;2023-02-22T04:05:56;97768.75;;;8.35;89.94
36502;BME280;25393;46.108;3.390;2023-02-22T04:08:23;97772.41;;;8.42;89.79
36502;BME280;25393;46.108;3.390;2023-02-22T04:10:49;97766.28;;;8.41;90.04
36502;BME280;25393;46.108;3.390;2023-02-22T04:13:16;97780.38;;;8.50;90.25
36502;BME280;25393;46.108;3.390;2023-02-22T04:15:46;97781.38;;;8.57;90.57
36502;BME280;25393;46.108;3.390;2023-02-22T04:18:12;97758.44;;;8.58;90.72
36502;BME280;25393;46.108;3.390;2023-02-22T04:20:47;97765.03;;;8.70;90.85
36502;BME280;25393;46.108;3.390;2023-02-22T04:23:15;97766.84;;;8.69;91.67
36502;BME280;25393;46.108;3.390;2023-02-22T04:25:42;97771.00;;;8.72;91.40
36502;BME280;25393;46.108;3.390;2023-02-22T04:28:16;97773.81;;;8.78;91.31
36502;BME280;25393;46.108;3.390;2023-02-22T04:30:43;97775.97;;;8.83;90.51
36502;BME280;25393;46.108;3.390;2023-02-22T04:33:14;97773.63;;;8.80;89.98
36502;BME280;25393;46.108;3.390;2023-02-22T04:35:48;97781.56;;;8.88;89.30
36502;BME280;25393;46.108;3.390;2023-02-22T04:38:16;97789.19;;;8.83;89.55
36502;BME280;25393;46.108;3.390;2023-02-22T04:40:43;97788.16;;;8.84;89.45
36502;BME280;25393;46.108;3.390;2023-02-22T04:43:12;97789.69;;;8.86;88.88
36502;BME280;25393;46.108;3.390;2023-02-22T04:45:39;97792.31;;;8.94;88.23
36502;BME280;25393;46.108;3.390;2023-02-22T04:48:05;97792.31;;;9.11;87.61
36502;BME280;25393;46.108;3.390;2023-02-22T04:50:32;97791.16;;;9.13;87.02
36502;BME280;25393;46.108;3.390;2023-02-22T04:52:58;97795.13;;;9.09;87.64
36502;BME280;25393;46.108;3.390;2023-02-22T04:55:25;97801.06;;;9.03;87.76
36502;BME280;25393;46.108;3.390;2023-02-22T04:57:54;97796.09;;;9.08;88.02
36502;BME280;25393;46.108;3.390;2023-02-22T05:00:21;97795.47;;;9.06;88.44
36502;BME280;25393;46.108;3.390;2023-02-22T05:02:48;97800.59;;;9.08;89.04
36502;BME280;25393;46.108;3.390;2023-02-22T05:05:19;97806.34;;;9.19;88.89
36502;BME280;25393;46.108;3.390;2023-02-22T05:07:49;97801.88;;;9.12;89.71
36502;BME280;25393;46.108;3.390;2023-02-22T05:10:19;97810.34;;;9.07;90.22
36502;BME280;25393;46.108;3.390;2023-02-22T05:12:50;97813.63;;;9.01;90.79
36502;BME280;25393;46.108;3.390;2023-02-22T05:15:20;97809.00;;;8.95;91.49
36502;BME280;25393;46.108;3.390;2023-02-22T05:17:48;97808.97;;;8.87;92.03
36502;BME280;25393;46.108;3.390;2023-02-22T05:20:25;97818.56;;;8.88;93.67
36502;BME280;25393;46.108;3.390;2023-02-22T05:22:56;97812.47;;;8.79;95.14
36502;BME280;25393;46.108;3.390;2023-02-22T05:25:24;97815.72;;;8.73;96.71
36502;BME280;25393;46.108;3.390;2023-02-22T05:27:52;97809.63;;;8.73;97.93
36502;BME280;25393;46.108;3.390;2023-02-22T05:30:23;97817.56;;;8.81;98.63
36502;BME280;25393;46.108;3.390;2023-02-22T05:32:51;97813.25;;;8.80;99.37
36502;BME280;25393;46.108;3.390;2023-02-22T05:35:21;97815.59;;;8.75;100.00
36502;BME280;25393;46.108;3.390;2023-02-22T05:37:48;97810.44;;;8.73;100.00
36502;BME280;25393;46.108;3.390;2023-02-22T05:40:17;97821.53;;;8.77;100.00
36502;BME280;25393;46.108;3.390;2023-02-22T05:42:44;97813.63;;;8.85;100.00
36502;BME280;25393;46.108;3.390;2023-02-22T05:45:16;97820.72;;;8.92;100.00
36502;BME280;25393;46.108;3.390;2023-02-22T05:47:47;97816.63;;;9.14;100.00
36502;BME280;25393;46.108;3.390;2023-02-22T05:50:15;97824.38;;;9.24;99.37
36502;BME280;25393;46.108;3.390;2023-02-22T05:52:45;97824.38;;;9.08;99.44
36502;BME280;25393;46.108;3.390;2023-02-22T05:55:17;97819.03;;;8.83;100.00
36502;BME280;25393;46.108;3.390;2023-02-22T05:57:51;97814.56;;;8.60;100.00
36502;BME280;25393;46.108;3.390;2023-02-22T06:00:26;97823.59;;;8.49;100.00
36502;BME280;25393;46.108;3.390;2023-02-22T06:03:01;97825.19;;;8.34;100.00
36502;BME280;25393;46.108;3.390;2023-02-22T06:05:28;97824.13;;;8.19;100.00
36502;BME280;25393;46.108;3.390;2023-02-22T06:07:56;97816.13;;;8.28;100.00
36502;BME280;25393;46.108;3.390;2023-02-22T06:10:23;97826.22;;;8.41;100.00
36502;BME280;25393;46.108;3.390;2023-02-22T06:12:50;97823.97;;;8.62;100.00
36502;BME280;25393;46.108;3.390;2023-02-22T06:15:21;97829.53;;;8.43;100.00
36502;BME280;25393;46.108;3.390;2023-02-22T06:17:48;97816.72;;;8.22;100.00
36502;BME280;25393;46.108;3.390;2023-02-22T06:20:18;97820.59;;;8.02;100.00
36502;BME280;25393;46.108;3.390;2023-02-22T06:22:52;97822.25;;;8.03;100.00
36502;BME280;25393;46.108;3.390;2023-02-22T06:25:22;97816.25;;;7.93;100.00
36502;BME280;25393;46.108;3.390;2023-02-22T06:27:52;97832.19;;;8.09;100.00
36502;BME280;25393;46.108;3.390;2023-02-22T06:30:23;97801.38;;;7.84;100.00
36502;BME280;25393;46.108;3.390;2023-02-22T06:32:50;97826.47;;;7.88;100.00
36502;BME280;25393;46.108;3.390;2023-02-22T06:35:20;97826.25;;;7.81;100.00
36502;BME280;25393;46.108;3.390;2023-02-22T06:37:49;97822.50;;;7.84;100.00
36502;BME280;25393;46.108;3.390;2023-02-22T06:40:20;97807.25;;;7.70;100.00
36502;BME280;25393;46.108;3.390;2023-02-22T06:42:49;97828.44;;;7.86;100.00
36502;BME280;25393;46.108;3.390;2023-02-22T06:45:17;97817.53;;;7.81;100.00
36502;BME280;25393;46.108;3.390;2023-02-22T06:47:49;97831.63;;;7.97;100.00
36502;BME280;25393;46.108;3.390;2023-02-22T06:50:25;97822.25;;;8.03;100.00
36502;BME280;25393;46.108;3.390;2023-02-22T06:52:51;97829.69;;;8.08;100.00
36502;BME280;25393;46.108;3.390;2023-02-22T06:55:20;97825.13;;;8.18;100.00
36502;BME280;25393;46.108;3.390;2023-02-22T06:57:50;97812.41;;;8.21;100.00
36502;BME280;25393;46.108;3.390;2023-02-22T07:00:22;97828.34;;;8.29;100.00
36502;BME280;25393;46.108;3.390;2023-02-22T07:02:50;97825.41;;;8.40;100.00
36502;BME280;25393;46.108;3.390;2023-02-22T07:05:22;97830.38;;;8.43;100.00
36502;BME280;25393;46.108;3.390;2023-02-22T07:07:50;97833.13;;;8.34;100.00
36502;BME280;25393;46.108;3.390;2023-02-22T07:10:26;97844.75;;;8.15;100.00
36502;BME280;25393;46.108;3.390;2023-02-22T07:12:54;97837.56;;;7.99;100.00
36502;BME280;25393;46.108;3.390;2023-02-22T07:15:22;97840.06;;;8.01;100.00
36502;BME280;25393;46.108;3.390;2023-02-22T07:17:50;97834.59;;;7.94;100.00
36502;BME280;25393;46.108;3.390;2023-02-22T07:20:23;97847.34;;;8.07;100.00
36502;BME280;25393;46.108;3.390;2023-02-22T07:22:50;97852.19;;;8.20;100.00
36502;BME280;25393;46.108;3.390;2023-02-22T07:25:21;97855.41;;;8.31;100.00
36502;BME280;25393;46.108;3.390;2023-02-22T07:27:52;97850.63;;;8.35;100.00
36502;BME280;25393;46.108;3.390;2023-02-22T07:30:25;97851.81;;;8.40;100.00
36502;BME280;25393;46.108;3.390;2023-02-22T07:32:54;97847.66;;;8.30;100.00
36502;BME280;25393;46.108;3.390;2023-02-22T07:35:27;97853.31;;;8.17;100.00
36502;BME280;25393;46.108;3.390;2023-02-22T07:37:54;97857.44;;;8.12;100.00
36502;BME280;25393;46.108;3.390;2023-02-22T07:40:22;97864.38;;;8.13;100.00
36502;BME280;25393;46.108;3.390;2023-02-22T07:43:01;97861.94;;;8.19;100.00
36502;BME280;25393;46.108;3.390;2023-02-22T07:45:32;97857.38;;;8.29;100.00
36502;BME280;25393;46.108;3.390;2023-02-22T07:48:00;97855.59;;;8.38;100.00
36502;BME280;25393;46.108;3.390;2023-02-22T07:50:28;97835.47;;;8.37;100.00
36502;BME280;25393;46.108;3.390;2023-02-22T07:53:00;97834.03;;;8.59;100.00
36502;BME280;25393;46.108;3.390;2023-02-22T07:55:29;97846.00;;;8.79;100.00
36502;BME280;25393;46.108;3.390;2023-02-22T07:58:03;97843.88;;;9.07;100.00
36502;BME280;25393;46.108;3.390;2023-02-22T08:00:32;97835.59;;;9.01;100.00
36502;BME280;25393;46.108;3.390;2023-02-22T08:03:01;97839.91;;;9.11;100.00
36502;BME280;25393;46.108;3.390;2023-02-22T08:05:29;97852.50;;;9.25;100.00
36502;BME280;25393;46.108;3.390;2023-02-22T08:07:56;97848.34;;;9.30;100.00
36502;BME280;25393;46.108;3.390;2023-02-22T08:10:24;97844.19;;;9.44;100.00
36502;BME280;25393;46.108;3.390;2023-02-22T08:12:52;97840.56;;;9.45;100.00
36502;BME280;25393;46.108;3.390;2023-02-22T08:17:52;97850.97;;;9.63;100.00
36502;BME280;25393;46.108;3.390;2023-02-22T08:20:21;97852.94;;;9.77;100.00
36502;BME280;25393;46.108;3.390;2023-02-22T08:22:50;97847.31;;;9.80;100.00
36502;BME280;25393;46.108;3.390;2023-02-22T08:25:19;97848.63;;;9.84;100.00
36502;BME280;25393;46.108;3.390;2023-02-22T08:27:46;97844.31;;;9.83;100.00
36502;BME280;25393;46.108;3.390;2023-02-22T08:30:20;97853.91;;;9.92;100.00
36502;BME280;25393;46.108;3.390;2023-02-22T08:32:49;97853.72;;;9.93;100.00
36502;BME280;25393;46.108;3.390;2023-02-22T08:35:19;97851.22;;;10.00;100.00
36502;BME280;25393;46.108;3.390;2023-02-22T08:37:48;97862.81;;;10.15;100.00
36502;BME280;25393;46.108;3.390;2023-02-22T08:40:23;97855.34;;;10.27;100.00
36502;BME280;25393;46.108;3.390;2023-02-22T08:42:49;97859.81;;;10.26;100.00
36502;BME280;25393;46.108;3.390;2023-02-22T08:45:16;97864.75;;;10.29;100.00
36502;BME280;25393;46.108;3.390;2023-02-22T08:47:46;97861.25;;;10.37;100.00
36502;BME280;25393;46.108;3.390;2023-02-22T08:50:22;97861.88;;;10.47;100.00
36502;BME280;25393;46.108;3.390;2023-02-22T08:52:55;97861.03;;;10.46;100.00
36502;BME280;25393;46.108;3.390;2023-02-22T08:55:25;97856.09;;;10.43;100.00
36502;BME280;25393;46.108;3.390;2023-02-22T08:57:53;97854.44;;;10.42;100.00
36502;BME280;25393;46.108;3.390;2023-02-22T09:00:20;97858.53;;;10.53;100.00
36502;BME280;25393;46.108;3.390;2023-02-22T09:02:51;97845.22;;;10.69;100.00
36502;BME280;25393;46.108;3.390;2023-02-22T09:05:19;97853.75;;;10.79;100.00
36502;BME280;25393;46.108;3.390;2023-02-22T09:07:46;97846.00;;;10.70;100.00
36502;BME280;25393;46.108;3.390;2023-02-22T09:10:17;97849.44;;;10.78;100.00
36502;BME280;25393;46.108;3.390;2023-02-22T09:12:45;97859.19;;;10.86;100.00
36502;BME280;25393;46.108;3.390;2023-02-22T09:15:12;97854.47;;;10.96;100.00
36502;BME280;25393;46.108;3.390;2023-02-22T09:17:38;97857.00;;;11.12;100.00
36502;BME280;25393;46.108;3.390;2023-02-22T09:20:06;97857.22;;;11.11;100.00
36502;BME280;25393;46.108;3.390;2023-02-22T09:22:33;97859.03;;;11.10;100.00
36502;BME280;25393;46.108;3.390;2023-02-22T09:25:00;97848.19;;;11.20;100.00
36502;BME280;25393;46.108;3.390;2023-02-22T09:27:41;97861.13;;;11.37;100.00
36502;BME280;25393;46.108;3.390;2023-02-22T09:30:36;97857.66;;;11.60;100.00
36502;BME280;25393;46.108;3.390;2023-02-22T09:33:07;97858.47;;;11.60;100.00
36502;BME280;25393;46.108;3.390;2023-02-22T09:35:39;97847.19;;;11.58;100.00
36502;BME280;25393;46.108;3.390;2023-02-22T09:38:09;97856.28;;;11.64;100.00
36502;BME280;25393;46.108;3.390;2023-02-22T09:40:39;97847.28;;;11.65;100.00
36502;BME280;25393;46.108;3.390;2023-02-22T09:48:22;97837.88;;;11.85;100.00
36502;BME280;25393;46.108;3.390;2023-02-22T09:50:52;97852.72;;;12.09;100.00
36502;BME280;25393;46.108;3.390;2023-02-22T09:53:41;97836.41;;;12.12;100.00
36502;BME280;25393;46.108;3.390;2023-02-22T09:56:12;97852.72;;;12.23;100.00
36502;BME280;25393;46.108;3.390;2023-02-22T09:58:42;97849.97;;;12.31;100.00
36502;BME280;25393;46.108;3.390;2023-02-22T10:01:25;97844.75;;;12.23;100.00
36502;BME280;25393;46.108;3.390;2023-02-22T10:09:38;97852.81;;;12.15;100.00
36502;BME280;25393;46.108;3.390;2023-02-22T10:12:09;97849.31;;;12.15;100.00
36502;BME280;25393;46.108;3.390;2023-02-22T10:14:55;97854.53;;;12.08;100.00
36502;BME280;25393;46.108;3.390;2023-02-22T10:20:45;97858.31;;;12.14;100.00
36502;BME280;25393;46.108;3.390;2023-02-22T10:26:24;97853.34;;;12.11;100.00
36502;BME280;25393;46.108;3.390;2023-02-22T10:29:07;97850.97;;;12.16;100.00
36502;BME280;25393;46.108;3.390;2023-02-22T10:31:43;97849.41;;;12.36;100.00
36502;BME280;25393;46.108;3.390;2023-02-22T10:34:24;97851.44;;;12.48;100.00
36502;BME280;25393;46.108;3.390;2023-02-22T10:36:58;97849.75;;;12.62;100.00
36502;BME280;25393;46.108;3.390;2023-02-22T10:39:33;97845.00;;;12.58;100.00
36502;BME280;25393;46.108;3.390;2023-02-22T10:42:06;97845.53;;;12.53;100.00
36502;BME280;25393;46.108;3.390;2023-02-22T10:44:37;97843.53;;;12.55;100.00
36502;BME280;25393;46.108;3.390;2023-02-22T10:47:07;97831.72;;;12.28;100.00
36502;BME280;25393;46.108;3.390;2023-02-22T10:49:38;97840.53;;;12.14;100.00
36502;BME280;25393;46.108;3.390;2023-02-22T10:52:23;97845.03;;;11.99;100.00
36502;BME280;25393;46.108;3.390;2023-02-22T10:54:50;97838.44;;;12.10;100.00
36502;BME280;25393;46.108;3.390;2023-02-22T10:57:23;97842.63;;;12.04;100.00
36502;BME280;25393;46.108;3.390;2023-02-22T10:59:51;97841.72;;;11.97;100.00
36502;BME280;25393;46.108;3.390;2023-02-22T11:02:24;97847.22;;;12.10;100.00
36502;BME280;25393;46.108;3.390;2023-02-22T11:04:55;97835.13;;;12.08;100.00
36502;BME280;25393;46.108;3.390;2023-02-22T11:09:55;97839.97;;;12.04;100.00
36502;BME280;25393;46.108;3.390;2023-02-22T11:12:34;97836.84;;;12.00;100.00
36502;BME280;25393;46.108;3.390;2023-02-22T11:17:57;97838.22;;;11.96;100.00
36502;BME280;25393;46.108;3.390;2023-02-22T11:20:29;97833.56;;;11.84;100.00
36502;BME280;25393;46.108;3.390;2023-02-22T11:23:02;97837.22;;;11.97;100.00
36502;BME280;25393;46.108;3.390;2023-02-22T11:25:38;97825.06;;;11.88;100.00
36502;BME280;25393;46.108;3.390;2023-02-22T11:28:21;97822.75;;;11.85;100.00
36502;BME280;25393;46.108;3.390;2023-02-22T11:31:43;97830.38;;;11.66;100.00
36502;BME280;25393;46.108;3.390;2023-02-22T11:33:57;97829.38;;;11.67;100.00
36502;BME280;25393;46.108;3.390;2023-02-22T11:38:56;97824.50;;;11.56;100.00
36502;BME280;25393;46.108;3.390;2023-02-22T11:41:28;97812.44;;;11.68;100.00
36502;BME280;25393;46.108;3.390;2023-02-22T11:44:20;97808.25;;;11.73;100.00
36502;BME280;25393;46.108;3.390;2023-02-22T11:46:47;97816.44;;;12.01;100.00
36502;BME280;25393;46.108;3.390;2023-02-22T11:49:16;97813.50;;;12.25;100.00
36502;BME280;25393;46.108;3.390;2023-02-22T11:52:17;97809.63;;;12.42;100.00
36502;BME280;25393;46.108;3.390;2023-02-22T12:11:30;97780.25;;;12.15;100.00
36502;BME280;25393;46.108;3.390;2023-02-22T12:19:34;97755.72;;;11.98;100.00
36502;BME280;25393;46.108;3.390;2023-02-22T12:22:10;97775.22;;;11.90;100.00
36502;BME280;25393;46.108;3.390;2023-02-22T12:24:45;97774.03;;;11.93;100.00
36502;BME280;25393;46.108;3.390;2023-02-22T12:27:44;97776.78;;;11.85;100.00
36502;BME280;25393;46.108;3.390;2023-02-22T12:30:35;97768.25;;;11.89;100.00
36502;BME280;25393;46.108;3.390;2023-02-22T12:33:10;97770.38;;;11.94;100.00
36502;BME280;25393;46.108;3.390;2023-02-22T12:35:47;97768.25;;;12.04;100.00
36502;BME280;25393;46.108;3.390;2023-02-22T12:38:24;97765.03;;;12.23;100.00
36502;BME280;25393;46.108;3.390;2023-02-22T12:43:26;97752.00;;;12.28;100.00
36502;BME280;25393;46.108;3.390;2023-02-22T12:46:11;97759.25;;;12.34;100.00
36502;BME280;25393;46.108;3.390;2023-02-22T12:48:45;97755.09;;;12.32;100.00
36502;BME280;25393;46.108;3.390;2023-02-22T12:54:22;97751.22;;;12.49;100.00
36502;BME280;25393;46.108;3.390;2023-02-22T12:57:05;97741.78;;;12.46;100.00
36502;BME280;25393;46.108;3.390;2023-02-22T12:59:36;97742.16;;;12.43;100.00
36502;BME280;25393;46.108;3.390;2023-02-22T13:02:19;97736.03;;;12.43;100.00
36502;BME280;25393;46.108;3.390;2023-02-22T13:04:47;97728.44;;;12.40;100.00
36502;BME280;25393;46.108;3.390;2023-02-22T13:15:43;97736.31;;;12.69;100.00
36502;BME280;25393;46.108;3.390;2023-02-22T13:21:38;97732.00;;;12.68;100.00
36502;BME280;25393;46.108;3.390;2023-02-22T13:23:53;97718.88;;;12.67;100.00
36502;BME280;25393;46.108;3.390;2023-02-22T13:26:27;97726.31;;;12.71;99.72
36502;BME280;25393;46.108;3.390;2023-02-22T13:29:09;97727.25;;;12.64;99.14
36502;BME280;25393;46.108;3.390;2023-02-22T13:39:55;97721.31;;;12.26;100.00
36502;BME280;25393;46.108;3.390;2023-02-22T13:47:59;97707.22;;;12.25;100.00
36502;BME280;25393;46.108;3.390;2023-02-22T13:50:54;97703.09;;;12.23;100.00
36502;BME280;25393;46.108;3.390;2023-02-22T13:53:29;97708.94;;;12.33;100.00
36502;BME280;25393;46.108;3.390;2023-02-22T13:56:00;97698.56;;;12.38;100.00
36502;BME280;25393;46.108;3.390;2023-02-22T13:58:27;97694.81;;;12.32;100.00
36502;BME280;25393;46.108;3.390;2023-02-22T14:00:56;97693.19;;;12.31;100.00
36502;BME280;25393;46.108;3.390;2023-02-22T14:03:39;97688.66;;;12.32;100.00
36502;BME280;25393;46.108;3.390;2023-02-22T14:06:09;97689.19;;;12.42;100.00
36502;BME280;25393;46.108;3.390;2023-02-22T14:08:38;97689.06;;;12.50;100.00
36502;BME280;25393;46.108;3.390;2023-02-22T14:16:25;97683.63;;;12.79;100.00
36502;BME280;25393;46.108;3.390;2023-02-22T14:19:11;97686.69;;;12.76;100.00
36502;BME280;25393;46.108;3.390;2023-02-22T14:21:55;97684.72;;;12.64;100.00
36502;BME280;25393;46.108;3.390;2023-02-22T14:24:26;97680.34;;;12.77;100.00
36502;BME280;25393;46.108;3.390;2023-02-22T14:27:03;97676.84;;;12.98;100.00
36502;BME280;25393;46.108;3.390;2023-02-22T14:29:30;97674.94;;;13.13;100.00
36502;BME280;25393;46.108;3.390;2023-02-22T14:32:00;97670.63;;;13.40;97.20
36502;BME280;25393;46.108;3.390;2023-02-22T14:35:11;97674.81;;;13.56;93.00
36502;BME280;25393;46.108;3.390;2023-02-22T14:37:54;97675.16;;;13.46;95.25
36502;BME280;25393;46.108;3.390;2023-02-22T14:40:28;97673.91;;;13.42;97.27
36502;BME280;25393;46.108;3.390;2023-02-22T14:43:14;97674.06;;;13.34;97.56
36502;BME280;25393;46.108;3.390;2023-02-22T14:45:56;97673.94;;;13.14;96.37
36502;BME280;25393;46.108;3.390;2023-02-22T14:48:35;97664.31;;;12.92;96.73
36502;BME280;25393;46.108;3.390;2023-02-22T14:54:02;97673.50;;;12.89;98.28
36502;BME280;25393;46.108;3.390;2023-02-22T14:56:37;97669.63;;;12.92;100.00
36502;BME280;25393;46.108;3.390;2023-02-22T14:59:19;97668.19;;;12.89;99.93
36502;BME280;25393;46.108;3.390;2023-02-22T15:01:46;97670.06;;;12.74;100.00
36502;BME280;25393;46.108;3.390;2023-02-22T15:04:33;97664.31;;;12.71;100.00
36502;BME280;25393;46.108;3.390;2023-02-22T15:07:07;97660.28;;;12.53;100.00
36502;BME280;25393;46.108;3.390;2023-02-22T15:09:34;97664.81;;;12.60;100.00
36502;BME280;25393;46.108;3.390;2023-02-22T15:14:34;97663.81;;;12.39;100.00
36502;BME280;25393;46.108;3.390;2023-02-22T15:17:12;97668.69;;;12.36;100.00
36502;BME280;25393;46.108;3.390;2023-02-22T15:19:42;97679.13;;;12.37;100.00
36502;BME280;25393;46.108;3.390;2023-02-22T15:24:54;97654.13;;;12.32;100.00
36502;BME280;25393;46.108;3.390;2023-02-22T15:27:21;97653.34;;;12.31;100.00
36502;BME280;25393;46.108;3.390;2023-02-22T15:29:57;97658.88;;;12.36;100.00
36502;BME280;25393;46.108;3.390;2023-02-22T15:35:26;97657.94;;;12.44;100.00
36502;BME280;25393;46.108;3.390;2023-02-22T15:38:17;97659.66;;;12.51;100.00